sensor_id;sensor_type;location;lat;lon;timestamp;P1;durP1;ratioP1;P2;durP2;ratioP2
11537;SDS011;50159;49.426;11.182;2022-11-20T00:01:23;19.17;;;13.07;;
11537;SDS011;50159;49.426;11.182;2022-11-20T00:03:52;20.93;;;13.60;;
11537;SDS011;50159;49.426;11.182;2022-11-20T00:06:22;20.97;;;13.97;;
11537;SDS011;50159;49.426;11.182;2022-11-20T00:08:50;20.47;;;13.20;;
11537;SDS011;50159;49.426;11.182;2022-11-20T00:11:20;20.20;;;13.83;;
11537;SDS011;50159;49.426;11.182;2022-11-20T00:13:50;16.93;;;12.87;;
11537;SDS011;50159;49.426;11.182;2022-11-20T00:16:22;21.37;;;13.50;;
11537;SDS011;50159;49.426;11.182;2022-11-20T00:18:51;18.67;;;13.47;;
11537;SDS011;50159;49.426;11.182;2022-11-20T00:21:22;18.87;;;13.03;;
11537;SDS011;50159;49.426;11.182;2022-11-20T00:23:52;21.77;;;14.50;;
11537;SDS011;50159;49.426;11.182;2022-11-20T00:26:22;18.63;;;13.17;;
11537;SDS011;50159;49.426;11.182;2022-11-20T00:28:52;19.53;;;12.97;;
11537;SDS011;50159;49.426;11.182;2022-11-20T00:31:21;22.50;;;13.80;;
11537;SDS011;50159;49.426;11.182;2022-11-20T00:33:48;19.50;;;13.17;;
11537;SDS011;50159;49.426;11.182;2022-11-20T00:36:20;18.40;;;13.13;;
11537;SDS011;50159;49.426;11.182;2022-11-20T00:38:52;20.07;;;14.03;;
11537;SDS011;50159;49.426;11.182;2022-11-20T00:41:22;18.93;;;13.77;;
11537;SDS011;50159;49.426;11.182;2022-11-20T00:43:50;18.73;;;13.50;;
11537;SDS011;50159;49.426;11.182;2022-11-20T00:46:20;23.37;;;14.73;;
11537;SDS011;50159;49.426;11.182;2022-11-20T00:48:50;18.53;;;12.77;;
11537;SDS011;50159;49.426;11.182;2022-11-20T00:51:18;21.80;;;14.63;;
11537;SDS011;50159;49.426;11.182;2022-11-20T00:53:48;20.13;;;12.73;;
11537;SDS011;50159;49.426;11.182;2022-11-20T00:56:16;20.47;;;12.83;;
11537;SDS011;50159;49.426;11.182;2022-11-20T00:58:46;20.70;;;13.73;;
11537;SDS011;50159;49.426;11.182;2022-11-20T01:03:53;19.60;;;13.83;;
11537;SDS011;50159;49.426;11.182;2022-11-20T01:06:27;22.73;;;14.43;;
11537;SDS011;50159;49.426;11.182;2022-11-20T01:08:58;18.90;;;13.60;;
11537;SDS011;50159;49.426;11.182;2022-11-20T01:11:29;19.23;;;13.47;;
11537;SDS011;50159;49.426;11.182;2022-11-20T01:14:01;17.63;;;13.17;;
11537;SDS011;50159;49.426;11.182;2022-11-20T01:16:35;18.10;;;13.67;;
11537;SDS011;50159;49.426;11.182;2022-11-20T01:19:05;21.83;;;14.20;;
11537;SDS011;50159;49.426;11.182;2022-11-20T01:21:42;20.77;;;14.03;;
11537;SDS011;50159;49.426;11.182;2022-11-20T01:24:13;20.70;;;12.93;;
11537;SDS011;50159;49.426;11.182;2022-11-20T01:26:42;20.93;;;13.27;;
11537;SDS011;50159;49.426;11.182;2022-11-20T01:29:18;21.93;;;12.50;;
11537;SDS011;50159;49.426;11.182;2022-11-20T01:31:50;17.83;;;12.67;;
11537;SDS011;50159;49.426;11.182;2022-11-20T01:34:19;18.30;;;12.83;;
11537;SDS011;50159;49.426;11.182;2022-11-20T01:36:48;18.53;;;12.70;;
11537;SDS011;50159;49.426;11.182;2022-11-20T01:39:22;18.87;;;12.90;;
11537;SDS011;50159;49.426;11.182;2022-11-20T01:41:51;20.13;;;14.47;;
11537;SDS011;50159;49.426;11.182;2022-11-20T01:50:06;19.27;;;13.03;;
11537;SDS011;50159;49.426;11.182;2022-11-20T01:52:46;16.77;;;12.30;;
11537;SDS011;50159;49.426;11.182;2022-11-20T01:55:24;18.43;;;12.77;;
11537;SDS011;50159;49.426;11.182;2022-11-20T01:57:57;19.13;;;12.93;;
11537;SDS011;50159;49.426;11.182;2022-11-20T02:00:26;20.17;;;12.93;;
11537;SDS011;50159;49.426;11.182;2022-11-20T02:02:57;17.83;;;13.03;;
11537;SDS011;50159;49.426;11.182;2022-11-20T02:05:36;19.53;;;12.40;;
11537;SDS011;50159;49.426;11.182;2022-11-20T02:08:11;20.90;;;12.80;;
11537;SDS011;50159;49.426;11.182;2022-11-20T02:10:39;18.23;;;12.93;;
11537;SDS011;50159;49.426;11.182;2022-11-20T02:13:05;22.20;;;13.70;;
11537;SDS011;50159;49.426;11.182;2022-11-20T02:15:53;26.33;;;16.10;;
11537;SDS011;50159;49.426;11.182;2022-11-20T02:18:20;20.90;;;14.17;;
11537;SDS011;50159;49.426;11.182;2022-11-20T02:20:53;20.27;;;13.10;;
11537;SDS011;50159;49.426;11.182;2022-11-20T02:23:32;21.40;;;14.20;;
11537;SDS011;50159;49.426;11.182;2022-11-20T02:26:10;21.73;;;13.10;;
11537;SDS011;50159;49.426;11.182;2022-11-20T02:28:40;23.37;;;14.73;;
11537;SDS011;50159;49.426;11.182;2022-11-20T02:31:07;25.13;;;14.97;;
11537;SDS011;50159;49.426;11.182;2022-11-20T02:33:34;16.50;;;12.47;;
11537;SDS011;50159;49.426;11.182;2022-11-20T02:36:01;15.90;;;12.77;;
11537;SDS011;50159;49.426;11.182;2022-11-20T02:38:27;22.63;;;14.40;;
11537;SDS011;50159;49.426;11.182;2022-11-20T02:40:54;19.93;;;14.33;;
11537;SDS011;50159;49.426;11.182;2022-11-20T02:43:21;17.20;;;12.90;;
11537;SDS011;50159;49.426;11.182;2022-11-20T02:45:49;18.73;;;13.10;;
11537;SDS011;50159;49.426;11.182;2022-11-20T02:48:15;19.40;;;13.67;;
11537;SDS011;50159;49.426;11.182;2022-11-20T02:50:42;21.97;;;13.70;;
11537;SDS011;50159;49.426;11.182;2022-11-20T02:53:09;20.60;;;13.73;;
11537;SDS011;50159;49.426;11.182;2022-11-20T02:55:36;20.67;;;14.60;;
11537;SDS011;50159;49.426;11.182;2022-11-20T02:58:03;22.07;;;14.43;;
11537;SDS011;50159;49.426;11.182;2022-11-20T03:00:29;22.13;;;14.20;;
11537;SDS011;50159;49.426;11.182;2022-11-20T03:02:56;21.90;;;13.50;;
11537;SDS011;50159;49.426;11.182;2022-11-20T03:05:23;15.77;;;12.43;;
11537;SDS011;50159;49.426;11.182;2022-11-20T03:07:50;21.97;;;13.57;;
11537;SDS011;50159;49.426;11.182;2022-11-20T03:10:16;20.37;;;13.20;;
11537;SDS011;50159;49.426;11.182;2022-11-20T03:12:43;21.43;;;13.93;;
11537;SDS011;50159;49.426;11.182;2022-11-20T03:15:10;21.50;;;13.47;;
11537;SDS011;50159;49.426;11.182;2022-11-20T03:17:37;22.53;;;13.93;;
11537;SDS011;50159;49.426;11.182;2022-11-20T03:20:04;20.30;;;13.00;;
11537;SDS011;50159;49.426;11.182;2022-11-20T03:22:31;20.97;;;12.07;;
11537;SDS011;50159;49.426;11.182;2022-11-20T03:24:58;19.97;;;13.77;;
11537;SDS011;50159;49.426;11.182;2022-11-20T03:27:25;15.83;;;11.57;;
11537;SDS011;50159;49.426;11.182;2022-11-20T03:29:52;19.73;;;13.17;;
11537;SDS011;50159;49.426;11.182;2022-11-20T03:32:18;20.03;;;13.23;;
11537;SDS011;50159;49.426;11.182;2022-11-20T03:34:45;19.40;;;13.47;;
11537;SDS011;50159;49.426;11.182;2022-11-20T03:37:12;19.60;;;13.33;;
11537;SDS011;50159;49.426;11.182;2022-11-20T03:39:39;19.23;;;12.83;;
11537;SDS011;50159;49.426;11.182;2022-11-20T03:42:05;20.80;;;13.30;;
11537;SDS011;50159;49.426;11.182;2022-11-20T03:44:52;17.27;;;12.03;;
11537;SDS011;50159;49.426;11.182;2022-11-20T03:47:19;19.80;;;12.57;;
11537;SDS011;50159;49.426;11.182;2022-11-20T03:49:45;19.40;;;12.10;;
11537;SDS011;50159;49.426;11.182;2022-11-20T03:52:12;15.90;;;11.70;;
11537;SDS011;50159;49.426;11.182;2022-11-20T03:54:39;18.63;;;13.43;;
11537;SDS011;50159;49.426;11.182;2022-11-20T03:57:05;16.53;;;12.00;;
11537;SDS011;50159;49.426;11.182;2022-11-20T03:59:32;18.03;;;12.47;;
11537;SDS011;50159;49.426;11.182;2022-11-20T04:01:59;18.73;;;12.10;;
11537;SDS011;50159;49.426;11.182;2022-11-20T04:04:26;20.40;;;13.50;;
11537;SDS011;50159;49.426;11.182;2022-11-20T04:06:52;22.10;;;13.70;;
11537;SDS011;50159;49.426;11.182;2022-11-20T04:09:19;19.33;;;12.87;;
11537;SDS011;50159;49.426;11.182;2022-11-20T04:11:46;22.47;;;13.33;;
11537;SDS011;50159;49.426;11.182;2022-11-20T04:14:14;18.63;;;12.93;;
11537;SDS011;50159;49.426;11.182;2022-11-20T04:16:42;17.37;;;12.77;;
11537;SDS011;50159;49.426;11.182;2022-11-20T04:19:10;20.30;;;12.67;;
11537;SDS011;50159;49.426;11.182;2022-11-20T04:21:43;18.63;;;12.50;;
11537;SDS011;50159;49.426;11.182;2022-11-20T04:24:10;18.43;;;12.50;;
11537;SDS011;50159;49.426;11.182;2022-11-20T04:26:37;19.57;;;13.27;;
11537;SDS011;50159;49.426;11.182;2022-11-20T04:29:05;18.90;;;12.80;;
11537;SDS011;50159;49.426;11.182;2022-11-20T04:31:33;20.23;;;13.47;;
11537;SDS011;50159;49.426;11.182;2022-11-20T04:34:01;22.87;;;13.43;;
11537;SDS011;50159;49.426;11.182;2022-11-20T04:36:31;20.57;;;12.83;;
11537;SDS011;50159;49.426;11.182;2022-11-20T04:38:59;19.87;;;12.63;;
11537;SDS011;50159;49.426;11.182;2022-11-20T04:41:33;20.43;;;12.83;;
11537;SDS011;50159;49.426;11.182;2022-11-20T04:44:02;21.13;;;13.20;;
11537;SDS011;50159;49.426;11.182;2022-11-20T04:46:32;20.50;;;13.60;;
11537;SDS011;50159;49.426;11.182;2022-11-20T04:49:05;17.70;;;12.70;;
11537;SDS011;50159;49.426;11.182;2022-11-20T04:51:33;17.13;;;11.77;;
11537;SDS011;50159;49.426;11.182;2022-11-20T04:54:00;19.37;;;12.17;;
11537;SDS011;50159;49.426;11.182;2022-11-20T04:56:27;17.63;;;12.83;;
11537;SDS011;50159;49.426;11.182;2022-11-20T04:58:54;20.97;;;13.47;;
11537;SDS011;50159;49.426;11.182;2022-11-20T05:01:22;17.67;;;12.20;;
11537;SDS011;50159;49.426;11.182;2022-11-20T05:03:50;19.07;;;12.43;;
11537;SDS011;50159;49.426;11.182;2022-11-20T05:06:18;18.17;;;12.07;;
11537;SDS011;50159;49.426;11.182;2022-11-20T05:08:46;18.07;;;12.43;;
11537;SDS011;50159;49.426;11.182;2022-11-20T05:11:15;20.53;;;12.33;;
11537;SDS011;50159;49.426;11.182;2022-11-20T05:13:45;18.43;;;12.17;;
11537;SDS011;50159;49.426;11.182;2022-11-20T05:16:14;19.40;;;11.43;;
11537;SDS011;50159;49.426;11.182;2022-11-20T05:18:44;17.87;;;12.63;;
11537;SDS011;50159;49.426;11.182;2022-11-20T05:21:11;19.00;;;12.17;;
11537;SDS011;50159;49.426;11.182;2022-11-20T05:23:39;19.67;;;12.60;;
11537;SDS011;50159;49.426;11.182;2022-11-20T05:26:08;17.87;;;12.20;;
11537;SDS011;50159;49.426;11.182;2022-11-20T05:28:40;21.67;;;13.07;;
11537;SDS011;50159;49.426;11.182;2022-11-20T05:31:07;16.87;;;12.30;;
11537;SDS011;50159;49.426;11.182;2022-11-20T05:33:37;19.10;;;12.43;;
11537;SDS011;50159;49.426;11.182;2022-11-20T05:36:07;21.77;;;12.57;;
11537;SDS011;50159;49.426;11.182;2022-11-20T05:38:34;18.07;;;12.60;;
11537;SDS011;50159;49.426;11.182;2022-11-20T05:41:05;17.47;;;12.10;;
11537;SDS011;50159;49.426;11.182;2022-11-20T05:43:34;17.50;;;11.13;;
11537;SDS011;50159;49.426;11.182;2022-11-20T05:46:03;19.67;;;12.93;;
11537;SDS011;50159;49.426;11.182;2022-11-20T05:48:32;18.90;;;12.27;;
11537;SDS011;50159;49.426;11.182;2022-11-20T05:51:01;18.10;;;11.93;;
11537;SDS011;50159;49.426;11.182;2022-11-20T05:53:29;17.43;;;11.90;;
11537;SDS011;50159;49.426;11.182;2022-11-20T05:56:05;19.53;;;11.87;;
11537;SDS011;50159;49.426;11.182;2022-11-20T05:58:42;17.30;;;12.23;;
11537;SDS011;50159;49.426;11.182;2022-11-20T06:01:13;16.33;;;12.17;;
11537;SDS011;50159;49.426;11.182;2022-11-20T06:03:45;18.57;;;11.57;;
11537;SDS011;50159;49.426;11.182;2022-11-20T06:06:14;18.13;;;12.60;;
11537;SDS011;50159;49.426;11.182;2022-11-20T06:08:42;19.10;;;12.27;;
11537;SDS011;50159;49.426;11.182;2022-11-20T06:11:11;21.43;;;13.60;;
11537;SDS011;50159;49.426;11.182;2022-11-20T06:13:39;20.53;;;12.33;;
11537;SDS011;50159;49.426;11.182;2022-11-20T06:16:08;18.83;;;13.43;;
11537;SDS011;50159;49.426;11.182;2022-11-20T06:18:37;17.20;;;11.80;;
11537;SDS011;50159;49.426;11.182;2022-11-20T06:23:35;16.77;;;11.30;;
11537;SDS011;50159;49.426;11.182;2022-11-20T06:28:35;16.30;;;11.50;;
11537;SDS011;50159;49.426;11.182;2022-11-20T06:31:02;15.40;;;10.97;;
11537;SDS011;50159;49.426;11.182;2022-11-20T06:33:30;16.33;;;11.73;;
11537;SDS011;50159;49.426;11.182;2022-11-20T06:35:57;12.67;;;9.80;;
11537;SDS011;50159;49.426;11.182;2022-11-20T06:38:34;17.23;;;11.00;;
11537;SDS011;50159;49.426;11.182;2022-11-20T06:41:00;17.17;;;11.03;;
11537;SDS011;50159;49.426;11.182;2022-11-20T06:43:29;14.97;;;10.40;;
11537;SDS011;50159;49.426;11.182;2022-11-20T06:45:57;14.43;;;10.83;;
11537;SDS011;50159;49.426;11.182;2022-11-20T06:48:28;15.47;;;10.10;;
11537;SDS011;50159;49.426;11.182;2022-11-20T06:50:56;16.73;;;11.73;;
11537;SDS011;50159;49.426;11.182;2022-11-20T06:53:23;17.20;;;11.20;;
11537;SDS011;50159;49.426;11.182;2022-11-20T06:55:51;16.67;;;10.30;;
11537;SDS011;50159;49.426;11.182;2022-11-20T06:58:18;15.57;;;11.03;;
11537;SDS011;50159;49.426;11.182;2022-11-20T07:00:45;23.17;;;12.40;;
11537;SDS011;50159;49.426;11.182;2022-11-20T07:03:12;13.40;;;10.47;;
11537;SDS011;50159;49.426;11.182;2022-11-20T07:05:40;16.73;;;11.27;;
11537;SDS011;50159;49.426;11.182;2022-11-20T07:08:07;15.23;;;9.97;;
11537;SDS011;50159;49.426;11.182;2022-11-20T07:10:34;15.63;;;10.57;;
11537;SDS011;50159;49.426;11.182;2022-11-20T07:13:02;13.67;;;10.30;;
11537;SDS011;50159;49.426;11.182;2022-11-20T07:15:29;14.67;;;10.23;;
11537;SDS011;50159;49.426;11.182;2022-11-20T07:17:58;13.63;;;9.83;;
11537;SDS011;50159;49.426;11.182;2022-11-20T07:20:26;13.90;;;10.07;;
11537;SDS011;50159;49.426;11.182;2022-11-20T07:22:56;13.53;;;9.77;;
11537;SDS011;50159;49.426;11.182;2022-11-20T07:25:24;13.23;;;10.47;;
11537;SDS011;50159;49.426;11.182;2022-11-20T07:27:57;13.63;;;10.03;;
11537;SDS011;50159;49.426;11.182;2022-11-20T07:30:25;15.47;;;10.33;;
11537;SDS011;50159;49.426;11.182;2022-11-20T07:32:54;15.43;;;11.77;;
11537;SDS011;50159;49.426;11.182;2022-11-20T07:35:23;27.87;;;16.47;;
11537;SDS011;50159;49.426;11.182;2022-11-20T07:37:50;26.07;;;16.17;;
11537;SDS011;50159;49.426;11.182;2022-11-20T07:40:17;23.73;;;15.50;;
11537;SDS011;50159;49.426;11.182;2022-11-20T07:42:53;23.83;;;14.70;;
11537;SDS011;50159;49.426;11.182;2022-11-20T07:45:22;20.17;;;13.90;;
11537;SDS011;50159;49.426;11.182;2022-11-20T07:47:50;18.60;;;12.90;;
11537;SDS011;50159;49.426;11.182;2022-11-20T07:50:18;15.63;;;11.93;;
11537;SDS011;50159;49.426;11.182;2022-11-20T07:52:45;16.10;;;11.73;;
11537;SDS011;50159;49.426;11.182;2022-11-20T07:55:13;20.40;;;12.80;;
11537;SDS011;50159;49.426;11.182;2022-11-20T07:57:41;17.90;;;13.03;;
11537;SDS011;50159;49.426;11.182;2022-11-20T08:00:09;30.03;;;19.47;;
11537;SDS011;50159;49.426;11.182;2022-11-20T08:02:37;27.27;;;19.67;;
11537;SDS011;50159;49.426;11.182;2022-11-20T08:05:06;31.53;;;18.47;;
11537;SDS011;50159;49.426;11.182;2022-11-20T08:07:37;26.93;;;17.83;;
11537;SDS011;50159;49.426;11.182;2022-11-20T08:10:07;22.23;;;16.23;;
11537;SDS011;50159;49.426;11.182;2022-11-20T08:12:43;20.20;;;14.13;;
11537;SDS011;50159;49.426;11.182;2022-11-20T08:15:33;22.60;;;14.27;;
11537;SDS011;50159;49.426;11.182;2022-11-20T08:18:05;19.27;;;13.33;;
11537;SDS011;50159;49.426;11.182;2022-11-20T08:20:56;19.03;;;13.30;;
11537;SDS011;50159;49.426;11.182;2022-11-20T08:23:23;17.90;;;12.30;;
11537;SDS011;50159;49.426;11.182;2022-11-20T08:25:50;18.37;;;12.90;;
11537;SDS011;50159;49.426;11.182;2022-11-20T08:28:17;14.07;;;10.90;;
11537;SDS011;50159;49.426;11.182;2022-11-20T08:30:47;14.50;;;11.23;;
11537;SDS011;50159;49.426;11.182;2022-11-20T08:33:16;14.73;;;10.50;;
11537;SDS011;50159;49.426;11.182;2022-11-20T08:35:43;12.80;;;10.17;;
11537;SDS011;50159;49.426;11.182;2022-11-20T08:38:10;14.97;;;10.90;;
11537;SDS011;50159;49.426;11.182;2022-11-20T08:40:37;14.77;;;10.23;;
11537;SDS011;50159;49.426;11.182;2022-11-20T08:43:03;16.87;;;11.63;;
11537;SDS011;50159;49.426;11.182;2022-11-20T08:45:30;16.93;;;12.23;;
11537;SDS011;50159;49.426;11.182;2022-11-20T08:48:00;13.80;;;10.57;;
11537;SDS011;50159;49.426;11.182;2022-11-20T08:50:31;15.00;;;11.83;;
11537;SDS011;50159;49.426;11.182;2022-11-20T08:53:05;19.90;;;13.53;;
11537;SDS011;50159;49.426;11.182;2022-11-20T08:55:32;19.93;;;13.47;;
11537;SDS011;50159;49.426;11.182;2022-11-20T08:58:04;22.73;;;14.00;;
11537;SDS011;50159;49.426;11.182;2022-11-20T09:00:32;20.80;;;13.83;;
11537;SDS011;50159;49.426;11.182;2022-11-20T09:03:00;20.57;;;13.00;;
11537;SDS011;50159;49.426;11.182;2022-11-20T09:05:28;19.37;;;11.60;;
11537;SDS011;50159;49.426;11.182;2022-11-20T09:07:58;17.40;;;12.20;;
11537;SDS011;50159;49.426;11.182;2022-11-20T09:10:26;16.37;;;10.57;;
11537;SDS011;50159;49.426;11.182;2022-11-20T09:12:54;13.27;;;10.63;;
11537;SDS011;50159;49.426;11.182;2022-11-20T09:15:21;11.27;;;10.07;;
11537;SDS011;50159;49.426;11.182;2022-11-20T09:17:50;12.83;;;10.90;;
11537;SDS011;50159;49.426;11.182;2022-11-20T09:20:21;13.30;;;9.83;;
11537;SDS011;50159;49.426;11.182;2022-11-20T09:22:49;13.43;;;9.87;;
11537;SDS011;50159;49.426;11.182;2022-11-20T09:25:16;20.93;;;11.60;;
11537;SDS011;50159;49.426;11.182;2022-11-20T09:27:43;18.23;;;12.10;;
11537;SDS011;50159;49.426;11.182;2022-11-20T09:30:12;21.03;;;13.43;;
11537;SDS011;50159;49.426;11.182;2022-11-20T09:32:41;20.73;;;13.47;;
11537;SDS011;50159;49.426;11.182;2022-11-20T09:35:08;22.93;;;13.53;;
11537;SDS011;50159;49.426;11.182;2022-11-20T09:37:36;18.47;;;13.80;;
11537;SDS011;50159;49.426;11.182;2022-11-20T09:40:04;19.13;;;12.90;;
11537;SDS011;50159;49.426;11.182;2022-11-20T09:45:23;14.90;;;11.33;;
11537;SDS011;50159;49.426;11.182;2022-11-20T09:56:40;16.87;;;11.13;;
11537;SDS011;50159;49.426;11.182;2022-11-20T09:59:22;17.40;;;12.90;;
11537;SDS011;50159;49.426;11.182;2022-11-20T10:04:53;18.63;;;14.83;;
11537;SDS011;50159;49.426;11.182;2022-11-20T10:07:23;18.33;;;14.37;;
11537;SDS011;50159;49.426;11.182;2022-11-20T10:10:05;21.43;;;14.87;;
11537;SDS011;50159;49.426;11.182;2022-11-20T10:15:41;22.07;;;14.10;;
11537;SDS011;50159;49.426;11.182;2022-11-20T10:30:15;11.77;;;8.80;;
11537;SDS011;50159;49.426;11.182;2022-11-20T10:32:47;8.30;;;7.50;;
11537;SDS011;50159;49.426;11.182;2022-11-20T10:38:02;7.07;;;6.37;;
11537;SDS011;50159;49.426;11.182;2022-11-20T10:40:40;9.70;;;7.33;;
11537;SDS011;50159;49.426;11.182;2022-11-20T10:43:21;9.07;;;7.10;;
11537;SDS011;50159;49.426;11.182;2022-11-20T10:46:08;9.33;;;7.93;;
11537;SDS011;50159;49.426;11.182;2022-11-20T10:48:43;7.17;;;6.50;;
11537;SDS011;50159;49.426;11.182;2022-11-20T10:51:27;7.30;;;6.53;;
11537;SDS011;50159;49.426;11.182;2022-11-20T10:56:53;8.40;;;7.60;;
11537;SDS011;50159;49.426;11.182;2022-11-20T11:03:07;11.23;;;9.20;;
11537;SDS011;50159;49.426;11.182;2022-11-20T11:05:43;11.17;;;9.37;;
11537;SDS011;50159;49.426;11.182;2022-11-20T11:08:20;12.33;;;9.60;;
11537;SDS011;50159;49.426;11.182;2022-11-20T11:10:53;15.40;;;10.57;;
11537;SDS011;50159;49.426;11.182;2022-11-20T11:13:24;17.50;;;11.67;;
11537;SDS011;50159;49.426;11.182;2022-11-20T11:15:54;14.40;;;11.87;;
11537;SDS011;50159;49.426;11.182;2022-11-20T11:18:32;14.83;;;10.40;;
11537;SDS011;50159;49.426;11.182;2022-11-20T11:21:02;13.43;;;9.83;;
11537;SDS011;50159;49.426;11.182;2022-11-20T11:23:34;11.57;;;8.53;;
11537;SDS011;50159;49.426;11.182;2022-11-20T11:26:06;11.37;;;8.63;;
11537;SDS011;50159;49.426;11.182;2022-11-20T11:28:55;8.20;;;7.40;;
11537;SDS011;50159;49.426;11.182;2022-11-20T11:31:31;10.50;;;9.40;;
11537;SDS011;50159;49.426;11.182;2022-11-20T11:34:08;9.53;;;8.57;;
11537;SDS011;50159;49.426;11.182;2022-11-20T11:36:49;11.43;;;8.63;;
11537;SDS011;50159;49.426;11.182;2022-11-20T11:39:23;9.37;;;7.20;;
11537;SDS011;50159;49.426;11.182;2022-11-20T11:41:53;8.53;;;7.73;;
11537;SDS011;50159;49.426;11.182;2022-11-20T11:44:21;7.97;;;7.17;;
11537;SDS011;50159;49.426;11.182;2022-11-20T12:01:28;6.77;;;6.07;;
11537;SDS011;50159;49.426;11.182;2022-11-20T12:06:48;7.60;;;6.80;;
11537;SDS011;50159;49.426;11.182;2022-11-20T12:09:48;6.87;;;6.17;;
11537;SDS011;50159;49.426;11.182;2022-11-20T12:12:20;7.07;;;6.43;;
11537;SDS011;50159;49.426;11.182;2022-11-20T12:14:56;7.83;;;7.03;;
11537;SDS011;50159;49.426;11.182;2022-11-20T12:17:24;7.83;;;7.03;;
11537;SDS011;50159;49.426;11.182;2022-11-20T12:19:51;7.47;;;6.67;;
11537;SDS011;50159;49.426;11.182;2022-11-20T12:25:10;8.83;;;7.93;;
11537;SDS011;50159;49.426;11.182;2022-11-20T12:30:28;9.57;;;8.63;;
11537;SDS011;50159;49.426;11.182;2022-11-20T12:33:24;10.93;;;8.93;;
11537;SDS011;50159;49.426;11.182;2022-11-20T12:39:18;20.93;;;14.80;;
11537;SDS011;50159;49.426;11.182;2022-11-20T12:48:38;18.13;;;12.20;;
11537;SDS011;50159;49.426;11.182;2022-11-20T12:57:44;16.63;;;12.63;;
11537;SDS011;50159;49.426;11.182;2022-11-20T13:00:23;33.97;;;18.60;;
11537;SDS011;50159;49.426;11.182;2022-11-20T13:03:04;47.10;;;23.10;;
11537;SDS011;50159;49.426;11.182;2022-11-20T13:05:43;34.67;;;19.47;;
11537;SDS011;50159;49.426;11.182;2022-11-20T13:08:40;42.43;;;22.17;;
11537;SDS011;50159;49.426;11.182;2022-11-20T13:13:58;43.97;;;23.57;;
11537;SDS011;50159;49.426;11.182;2022-11-20T13:16:58;38.70;;;20.57;;
11537;SDS011;50159;49.426;11.182;2022-11-20T13:19:54;35.60;;;19.23;;
11537;SDS011;50159;49.426;11.182;2022-11-20T13:22:25;26.73;;;16.23;;
11537;SDS011;50159;49.426;11.182;2022-11-20T13:25:10;23.30;;;16.80;;
11537;SDS011;50159;49.426;11.182;2022-11-20T13:27:49;26.00;;;16.57;;
11537;SDS011;50159;49.426;11.182;2022-11-20T13:30:17;32.10;;;17.63;;
11537;SDS011;50159;49.426;11.182;2022-11-20T13:32:53;27.50;;;17.13;;
11537;SDS011;50159;49.426;11.182;2022-11-20T13:35:29;26.13;;;17.20;;
11537;SDS011;50159;49.426;11.182;2022-11-20T13:38:04;22.77;;;14.43;;
11537;SDS011;50159;49.426;11.182;2022-11-20T13:40:32;16.67;;;13.20;;
11537;SDS011;50159;49.426;11.182;2022-11-20T13:43:14;16.57;;;12.83;;
11537;SDS011;50159;49.426;11.182;2022-11-20T13:46:01;19.20;;;14.03;;
11537;SDS011;50159;49.426;11.182;2022-11-20T13:48:32;16.90;;;11.87;;
11537;SDS011;50159;49.426;11.182;2022-11-20T13:57:23;17.77;;;13.13;;
11537;SDS011;50159;49.426;11.182;2022-11-20T14:00:22;17.70;;;12.23;;
11537;SDS011;50159;49.426;11.182;2022-11-20T14:05:59;17.37;;;12.53;;
11537;SDS011;50159;49.426;11.182;2022-11-20T14:11:30;14.57;;;11.73;;
11537;SDS011;50159;49.426;11.182;2022-11-20T14:13:58;12.90;;;9.70;;
11537;SDS011;50159;49.426;11.182;2022-11-20T14:16:51;10.23;;;9.20;;
11537;SDS011;50159;49.426;11.182;2022-11-20T14:21:46;10.73;;;8.93;;
11537;SDS011;50159;49.426;11.182;2022-11-20T14:24:18;10.57;;;9.47;;
11537;SDS011;50159;49.426;11.182;2022-11-20T14:26:47;11.70;;;8.87;;
11537;SDS011;50159;49.426;11.182;2022-11-20T14:29:16;9.67;;;8.43;;
11537;SDS011;50159;49.426;11.182;2022-11-20T14:31:53;9.47;;;8.57;;
11537;SDS011;50159;49.426;11.182;2022-11-20T14:34:25;8.37;;;7.57;;
11537;SDS011;50159;49.426;11.182;2022-11-20T14:37:00;11.80;;;8.33;;
11537;SDS011;50159;49.426;11.182;2022-11-20T14:39:32;10.20;;;9.03;;
11537;SDS011;50159;49.426;11.182;2022-11-20T14:42:17;11.10;;;9.90;;
11537;SDS011;50159;49.426;11.182;2022-11-20T14:44:50;11.87;;;10.47;;
11537;SDS011;50159;49.426;11.182;2022-11-20T14:47:22;12.77;;;10.43;;
11537;SDS011;50159;49.426;11.182;2022-11-20T14:49:53;11.40;;;10.23;;
11537;SDS011;50159;49.426;11.182;2022-11-20T14:52:23;12.60;;;10.97;;
11537;SDS011;50159;49.426;11.182;2022-11-20T14:54:56;13.40;;;11.37;;
11537;SDS011;50159;49.426;11.182;2022-11-20T14:57:26;13.13;;;11.30;;
11537;SDS011;50159;49.426;11.182;2022-11-20T15:00:03;12.07;;;10.33;;
11537;SDS011;50159;49.426;11.182;2022-11-20T15:02:46;11.27;;;9.37;;
11537;SDS011;50159;49.426;11.182;2022-11-20T15:05:17;9.63;;;8.63;;
11537;SDS011;50159;49.426;11.182;2022-11-20T15:08:05;10.70;;;9.40;;
11537;SDS011;50159;49.426;11.182;2022-11-20T15:10:34;10.60;;;9.50;;
11537;SDS011;50159;49.426;11.182;2022-11-20T15:13:05;10.73;;;9.20;;
11537;SDS011;50159;49.426;11.182;2022-11-20T15:15:42;10.97;;;9.83;;
11537;SDS011;50159;49.426;11.182;2022-11-20T15:18:23;9.90;;;8.73;;
11537;SDS011;50159;49.426;11.182;2022-11-20T15:21:03;9.77;;;8.23;;
11537;SDS011;50159;49.426;11.182;2022-11-20T15:23:37;9.77;;;8.83;;
11537;SDS011;50159;49.426;11.182;2022-11-20T15:26:05;9.30;;;8.30;;
11537;SDS011;50159;49.426;11.182;2022-11-20T15:28:33;8.70;;;7.87;;
11537;SDS011;50159;49.426;11.182;2022-11-20T15:31:09;10.87;;;7.57;;
11537;SDS011;50159;49.426;11.182;2022-11-20T15:33:41;10.57;;;9.27;;
11537;SDS011;50159;49.426;11.182;2022-11-20T15:36:09;11.53;;;9.03;;
11537;SDS011;50159;49.426;11.182;2022-11-20T15:38:36;13.30;;;11.23;;
11537;SDS011;50159;49.426;11.182;2022-11-20T15:41:03;15.77;;;11.63;;
11537;SDS011;50159;49.426;11.182;2022-11-20T15:43:30;16.07;;;12.33;;
11537;SDS011;50159;49.426;11.182;2022-11-20T15:46:00;14.37;;;11.10;;
11537;SDS011;50159;49.426;11.182;2022-11-20T15:48:39;12.87;;;9.57;;
11537;SDS011;50159;49.426;11.182;2022-11-20T15:51:27;9.73;;;8.47;;
11537;SDS011;50159;49.426;11.182;2022-11-20T15:53:57;10.40;;;8.90;;
11537;SDS011;50159;49.426;11.182;2022-11-20T15:56:24;13.73;;;10.07;;
11537;SDS011;50159;49.426;11.182;2022-11-20T15:58:52;14.80;;;10.70;;
11537;SDS011;50159;49.426;11.182;2022-11-20T16:01:20;12.90;;;10.70;;
11537;SDS011;50159;49.426;11.182;2022-11-20T16:03:48;21.93;;;12.97;;
11537;SDS011;50159;49.426;11.182;2022-11-20T16:06:15;15.80;;;12.40;;
11537;SDS011;50159;49.426;11.182;2022-11-20T16:08:44;17.53;;;13.40;;
11537;SDS011;50159;49.426;11.182;2022-11-20T16:11:14;15.83;;;13.57;;
11537;SDS011;50159;49.426;11.182;2022-11-20T16:13:43;17.17;;;13.87;;
11537;SDS011;50159;49.426;11.182;2022-11-20T16:16:30;12.97;;;11.10;;
11537;SDS011;50159;49.426;11.182;2022-11-20T16:19:00;14.93;;;12.13;;
11537;SDS011;50159;49.426;11.182;2022-11-20T16:21:29;18.67;;;13.53;;
11537;SDS011;50159;49.426;11.182;2022-11-20T16:23:58;19.63;;;15.57;;
11537;SDS011;50159;49.426;11.182;2022-11-20T16:26:31;25.43;;;17.70;;